Time;durP1;ratioP1;P1;durP2;ratioP2;P2;SDS_P1;SDS_P2;PMS_P1;PMS_P2;Temp;Humidity;BMP_temperature;BMP_pressure;BME280_temperature;BME280_humidity;BME280_pressure;Samples;Min_cycle;Max_cycle;Signal;HPM_P1;HPM_P2
2022/04/29 00:00:38;;;;;;;6.22;4.75;;;;;;;17.85;60.66;100157.16;5112353;28;20034;-47
2022/04/29 00:03:05;;;;;;;7.47;4.97;;;;;;;17.87;60.44;100149.66;5111853;28;20455;-51
2022/04/29 00:05:31;;;;;;;7.75;5.43;;;;;;;17.39;62.09;100140.91;5111976;28;20047;-51
2022/04/29 00:07:56;;;;;;;6.95;5.60;;;;;;;17.41;61.91;100131.81;5112234;28;20450;-52
2022/04/29 00:10:22;;;;;;;8.60;6.10;;;;;;;17.07;63.05;100137.84;5111397;28;20024;-52
2022/04/29 00:12:48;;;;;;;9.40;6.25;;;;;;;16.80;64.37;100132.94;5111191;28;20027;-50
2022/04/29 00:15:16;;;;;;;9.50;6.55;;;;;;;16.44;66.74;100138.56;5110774;28;20124;-47
2022/04/29 00:17:43;;;;;;;9.63;6.60;;;;;;;16.63;66.34;100134.69;5112138;28;20047;-48
2022/04/29 00:20:10;;;;;;;9.05;6.85;;;;;;;17.01;65.12;100138.78;5112235;28;20481;-49
2022/04/29 00:22:36;;;;;;;15.02;7.10;;;;;;;17.16;64.52;100135.63;5111634;28;20102;-49
2022/04/29 00:25:03;;;;;;;9.10;6.82;;;;;;;16.95;65.02;100139.75;5111301;28;20435;-49
2022/04/29 00:27:29;;;;;;;12.05;6.93;;;;;;;16.97;65.86;100137.63;5111743;28;20089;-50
2022/04/29 00:29:54;;;;;;;12.35;7.80;;;;;;;17.21;64.35;100127.66;5111813;28;20479;-48
2022/04/29 00:32:22;;;;;;;8.55;7.35;;;;;;;17.35;63.68;100122.81;5112099;28;20047;-47
2022/04/29 00:34:48;;;;;;;10.77;8.10;;;;;;;17.11;63.41;100109.41;5111375;28;20028;-47
2022/04/29 00:37:15;;;;;;;11.15;7.85;;;;;;;17.28;63.48;100117.56;5111976;28;20065;-50
2022/04/29 00:39:40;;;;;;;11.13;7.90;;;;;;;16.97;64.02;100116.13;5111845;28;20047;-49
2022/04/29 00:42:11;;;;;;;9.38;7.43;;;;;;;17.05;64.37;100123.00;5111718;28;20570;-50
2022/04/29 00:44:39;;;;;;;12.00;8.43;;;;;;;17.07;65.03;100120.91;5111549;28;20058;-48
2022/04/29 00:47:06;;;;;;;12.10;8.20;;;;;;;16.92;66.17;100124.88;5111608;28;20031;-48
2022/04/29 00:49:32;;;;;;;10.05;8.00;;;;;;;17.03;65.38;100125.94;5111717;28;20019;-46
2022/04/29 00:51:57;;;;;;;11.30;8.38;;;;;;;17.02;64.87;100115.41;5111515;28;20080;-47
2022/04/29 00:54:31;;;;;;;10.80;8.32;;;;;;;17.00;64.16;100110.25;5111300;28;20083;-46
2022/04/29 00:56:58;;;;;;;12.13;8.88;;;;;;;17.11;64.83;100117.50;5110448;28;20047;-47
2022/04/29 00:59:33;;;;;;;13.02;7.95;;;;;;;16.45;67.12;100105.25;5111426;28;20367;-48
2022/04/29 01:01:59;;;;;;;11.18;8.57;;;;;;;16.65;66.09;100108.41;5110963;28;20032;-51
2022/04/29 01:04:31;;;;;;;15.13;9.05;;;;;;;16.92;64.55;100092.63;5110981;28;20027;-47
2022/04/29 01:06:56;;;;;;;12.20;8.88;;;;;;;17.04;64.90;100103.38;5110930;28;20048;-49
2022/04/29 01:09:22;;;;;;;12.13;8.35;;;;;;;17.02;64.97;100102.81;5111312;28;20024;-49
2022/04/29 01:11:48;;;;;;;12.77;9.00;;;;;;;17.25;64.50;100106.47;5111133;28;20031;-47
2022/04/29 01:14:14;;;;;;;12.82;8.70;;;;;;;17.17;64.50;100111.19;5111167;28;20028;-49
2022/04/29 01:16:41;;;;;;;12.23;8.80;;;;;;;17.28;64.26;100100.63;5110941;28;20027;-46
2022/04/29 01:19:07;;;;;;;11.95;9.40;;;;;;;17.21;65.01;100103.47;5111483;28;20441;-47
2022/04/29 01:21:32;;;;;;;12.38;9.90;;;;;;;16.54;66.81;100106.53;5111338;28;20035;-47
2022/04/29 01:23:57;;;;;;;11.95;9.43;;;;;;;16.77;65.95;100111.09;5111168;28;20033;-47
2022/04/29 01:26:23;;;;;;;13.10;9.88;;;;;;;16.72;66.20;100111.00;5112546;28;20027;-46
2022/04/29 01:28:50;;;;;;;14.68;10.05;;;;;;;16.72;65.42;100093.00;5114910;28;20032;-47
2022/04/29 01:31:16;;;;;;;16.40;9.73;;;;;;;16.70;65.86;100099.66;5115186;28;20089;-46
2022/04/29 01:33:42;;;;;;;12.63;9.40;;;;;;;16.97;64.96;100108.06;5115154;28;20390;-48
2022/04/29 01:36:09;;;;;;;14.25;10.10;;;;;;;17.06;65.05;100101.28;5115650;28;20109;-47
2022/04/29 01:38:35;;;;;;;13.35;9.65;;;;;;;16.80;65.90;100094.50;5114971;27;20080;-47
2022/04/29 01:41:01;;;;;;;14.73;9.80;;;;;;;16.06;67.37;100086.91;5115235;28;20024;-47
2022/04/29 01:43:26;;;;;;;12.98;10.00;;;;;;;16.23;67.47;100089.72;5115353;28;20453;-47
2022/04/29 01:45:54;;;;;;;14.60;10.18;;;;;;;16.44;66.60;100087.53;5115077;28;20364;-49
2022/04/29 01:48:19;;;;;;;13.20;9.30;;;;;;;16.10;67.34;100089.94;5115332;28;20047;-47
2022/04/29 01:50:45;;;;;;;13.90;9.80;;;;;;;16.25;67.43;100100.25;5114951;28;20491;-47
2022/04/29 01:53:10;;;;;;;13.75;10.00;;;;;;;16.32;66.73;100093.69;5114668;28;20030;-47
2022/04/29 01:55:35;;;;;;;13.18;9.60;;;;;;;16.49;66.50;100085.78;5115108;28;20023;-48
2022/04/29 01:58:01;;;;;;;13.57;10.10;;;;;;;16.38;66.96;100090.09;5114877;28;20019;-49
2022/04/29 02:00:27;;;;;;;15.60;10.35;;;;;;;16.51;65.95;100086.34;5114343;28;20024;-47
2022/04/29 02:02:52;;;;;;;13.57;10.18;;;;;;;16.34;66.51;100088.09;5114881;28;20103;-47
2022/04/29 02:05:18;;;;;;;13.98;9.73;;;;;;;16.41;67.27;100083.41;5114496;28;20071;-48
2022/04/29 02:07:44;;;;;;;12.57;9.70;;;;;;;16.44;66.42;100084.84;5114346;28;20029;-48
2022/04/29 02:10:10;;;;;;;14.05;10.18;;;;;;;16.47;66.39;100090.56;5114399;28;20027;-47
2022/04/29 02:12:35;;;;;;;13.75;10.40;;;;;;;16.64;66.06;100088.00;5114444;28;20038;-49
2022/04/29 02:15:01;;;;;;;12.95;9.82;;;;;;;16.90;65.09;100092.06;5114334;28;20027;-48
2022/04/29 02:17:27;;;;;;;14.43;9.80;;;;;;;17.00;64.04;100094.97;5114414;28;20051;-49
2022/04/29 02:19:52;;;;;;;12.77;9.93;;;;;;;16.71;64.95;100095.91;5114435;28;20390;-49
2022/04/29 02:22:18;;;;;;;12.48;9.60;;;;;;;16.35;66.16;100089.72;5113937;28;20032;-47
2022/04/29 02:24:44;;;;;;;12.55;9.57;;;;;;;16.05;67.71;100092.50;5114157;28;20036;-47
2022/04/29 02:27:09;;;;;;;13.07;9.82;;;;;;;16.06;66.95;100089.59;5114074;28;20028;-50
2022/04/29 02:29:36;;;;;;;14.13;10.02;;;;;;;16.30;66.54;100093.13;5113903;28;20023;-49
2022/04/29 02:32:01;;;;;;;13.23;9.77;;;;;;;16.17;66.48;100096.03;5113810;28;20032;-51
2022/04/29 02:34:27;;;;;;;13.43;9.60;;;;;;;16.11;66.93;100095.09;5113948;28;20101;-49
2022/04/29 02:36:53;;;;;;;13.88;10.57;;;;;;;16.29;66.39;100096.03;5113897;28;20047;-47
2022/04/29 02:39:19;;;;;;;12.82;9.48;;;;;;;16.26;65.21;100093.81;5113145;28;20452;-47
2022/04/29 02:41:45;;;;;;;13.52;10.02;;;;;;;16.20;65.98;100093.69;5113740;28;20110;-47
2022/04/29 02:44:11;;;;;;;15.23;10.52;;;;;;;16.06;66.62;100094.94;5113585;28;20459;-46
2022/04/29 02:47:06;;;;;;;15.55;9.93;;;;;;;16.44;65.08;100109.81;5113851;28;20062;-47
2022/04/29 02:49:22;;;;;;;12.48;9.85;;;;;;;16.35;64.81;100109.34;5113579;28;20430;-47
2022/04/29 02:51:48;;;;;;;14.10;10.23;;;;;;;16.38;64.42;100108.06;5114074;28;20032;-47
2022/04/29 02:54:13;;;;;;;13.32;10.25;;;;;;;16.16;65.84;100114.00;5113281;28;20027;-47
2022/04/29 02:56:38;;;;;;;13.35;9.98;;;;;;;16.36;65.38;100118.22;5113037;28;20031;-46
2022/04/29 02:59:04;;;;;;;13.13;10.13;;;;;;;16.20;65.73;100114.34;5113678;28;20416;-46
2022/04/29 03:01:29;;;;;;;15.32;10.50;;;;;;;16.33;64.87;100126.75;5113714;28;20027;-50
2022/04/29 03:03:55;;;;;;;14.82;10.02;;;;;;;16.14;64.83;100124.13;5112929;28;20027;-47
2022/04/29 03:06:20;;;;;;;12.45;9.70;;;;;;;16.31;64.23;100132.34;5113080;28;20092;-47
2022/04/29 03:08:45;;;;;;;13.20;10.30;;;;;;;16.44;63.79;100125.13;5113282;28;20085;-50
2022/04/29 03:11:12;;;;;;;13.00;9.98;;;;;;;16.47;64.09;100127.31;5113393;28;20027;-47
2022/04/29 03:13:37;;;;;;;14.23;9.48;;;;;;;16.33;63.92;100124.06;5112966;28;20092;-48
2022/04/29 03:16:03;;;;;;;14.00;9.65;;;;;;;16.58;62.58;100135.41;5095094;28;20468;-46
2022/04/29 03:18:28;;;;;;;13.23;9.70;;;;;;;16.43;62.66;100132.38;5113231;28;20031;-48
2022/04/29 03:20:58;;;;;;;15.18;9.70;;;;;;;15.96;65.16;100135.78;5113234;28;20038;-48
2022/04/29 03:23:25;;;;;;;13.65;9.80;;;;;;;15.69;65.24;100132.63;5113215;28;20051;-48
2022/04/29 03:25:51;;;;;;;12.77;9.68;;;;;;;15.83;64.92;100136.78;5112741;28;20028;-51
2022/04/29 03:28:16;;;;;;;14.82;10.27;;;;;;;16.03;64.55;100133.81;5113305;28;20486;-50
2022/04/29 03:30:42;;;;;;;13.65;9.65;;;;;;;16.22;63.35;100129.19;5113175;28;20035;-48
2022/04/29 03:33:08;;;;;;;13.43;9.40;;;;;;;16.32;63.05;100125.94;5112126;28;20669;-49
2022/04/29 03:35:41;;;;;;;57.33;35.80;;;;;;;16.56;62.18;100142.06;5111894;28;20522;-49
2022/04/29 03:38:07;;;;;;;22.33;13.02;;;;;;;16.33;62.56;100130.22;5112289;28;20047;-50
2022/04/29 03:40:32;;;;;;;16.15;10.50;;;;;;;15.97;64.07;100145.47;5112323;28;20102;-47
2022/04/29 03:42:58;;;;;;;24.30;15.98;;;;;;;15.84;64.17;100143.00;5111978;28;20463;-47
2022/04/29 03:45:26;;;;;;;13.07;9.57;;;;;;;15.69;65.41;100140.69;5112323;28;20028;-47
2022/04/29 03:47:52;;;;;;;17.70;10.27;;;;;;;15.99;64.50;100140.69;5111624;28;20035;-48
2022/04/29 03:50:18;;;;;;;14.00;9.30;;;;;;;15.69;65.28;100148.72;5111913;28;20027;-52
2022/04/29 03:52:48;;;;;;;16.08;9.95;;;;;;;15.68;65.19;100140.91;5112086;28;20510;-48
2022/04/29 03:55:19;;;;;;;12.35;9.77;;;;;;;15.47;65.34;100134.97;5112357;28;20467;-48
2022/04/29 03:57:44;;;;;;;15.57;9.75;;;;;;;15.42;64.99;100145.56;5112620;28;20026;-47
2022/04/29 04:00:10;;;;;;;16.45;9.68;;;;;;;15.96;62.76;100149.19;5112595;28;20031;-52
2022/04/29 04:02:36;;;;;;;14.02;9.60;;;;;;;15.88;63.72;100149.53;5112577;28;20023;-47
2022/04/29 04:05:02;;;;;;;13.20;9.88;;;;;;;15.97;63.24;100152.69;5111665;28;20109;-47
2022/04/29 04:07:27;;;;;;;15.40;9.52;;;;;;;15.98;63.39;100157.03;5111595;28;20026;-51
2022/04/29 04:09:53;;;;;;;14.13;10.00;;;;;;;16.13;62.48;100153.94;5111664;28;20398;-47
2022/04/29 04:12:18;;;;;;;17.10;9.30;;;;;;;15.92;62.40;100158.75;5111643;28;20445;-48
2022/04/29 04:14:44;;;;;;;14.80;9.25;;;;;;;15.67;63.39;100144.63;5111098;28;20498;-47
2022/04/29 04:17:09;;;;;;;13.57;9.27;;;;;;;16.14;62.13;100158.22;5111301;28;20031;-49
2022/04/29 04:19:35;;;;;;;12.73;9.20;;;;;;;16.01;62.34;100151.19;5111100;28;20145;-47
2022/04/29 04:22:01;;;;;;;13.90;9.68;;;;;;;15.93;61.79;100154.19;5110949;28;20035;-50
2022/04/29 04:24:27;;;;;;;15.68;10.30;;;;;;;15.66;63.90;100162.59;5110987;28;20032;-50
2022/04/29 04:26:52;;;;;;;15.48;9.40;;;;;;;16.28;70.02;100167.72;5110725;28;20039;-48
2022/04/29 04:29:18;;;;;;;13.40;9.60;;;;;;;16.97;62.06;100165.31;5110296;28;20039;-49
2022/04/29 04:31:43;;;;;;;13.65;9.15;;;;;;;17.22;61.24;100164.25;5111247;28;20028;-47
2022/04/29 04:36:53;;;;;;;12.73;8.48;;;;;;;17.88;61.89;100163.94;5111084;28;20454;-48
2022/04/29 04:39:20;;;;;;;15.30;9.48;;;;;;;17.39;57.04;100164.31;5110744;28;20098;-48
2022/04/29 04:41:45;;;;;;;17.05;9.57;;;;;;;17.31;57.55;100160.13;5110437;28;20030;-49
2022/04/29 04:44:10;;;;;;;12.27;10.05;;;;;;;17.22;57.81;100168.81;5110419;28;20099;-51
2022/04/29 04:46:36;;;;;;;16.15;13.10;;;;;;;17.27;57.43;100174.28;5110628;28;20027;-52
2022/04/29 04:49:02;;;;;;;15.93;10.27;;;;;;;16.84;58.32;100170.94;5109897;28;20035;-47
2022/04/29 04:51:27;;;;;;;18.38;10.45;;;;;;;16.81;59.07;100168.69;5108713;28;20077;-48
2022/04/29 04:53:53;;;;;;;12.55;9.80;;;;;;;16.99;58.41;100165.91;5108034;28;20016;-49
2022/04/29 04:56:18;;;;;;;17.83;10.50;;;;;;;17.46;56.42;100167.69;5109046;28;20047;-49
2022/04/29 04:58:43;;;;;;;15.60;10.30;;;;;;;17.64;55.68;100169.38;5109351;28;20148;-51
2022/04/29 05:01:09;;;;;;;13.73;9.48;;;;;;;17.67;54.98;100171.59;5108561;28;20444;-50
2022/04/29 05:03:34;;;;;;;13.88;9.07;;;;;;;17.11;56.20;100163.19;5109181;28;20031;-52
2022/04/29 05:06:00;;;;;;;17.33;9.38;;;;;;;17.58;54.92;100168.47;5109160;28;20059;-49
2022/04/29 05:08:25;;;;;;;15.55;12.32;;;;;;;17.98;54.05;100173.00;5109603;28;20107;-51
2022/04/29 05:10:50;;;;;;;16.80;10.25;;;;;;;18.17;54.15;100172.81;5108683;28;20027;-50
2022/04/29 05:13:16;;;;;;;17.90;10.20;;;;;;;18.85;52.78;100173.63;5107437;28;20138;-49
2022/04/29 05:15:42;;;;;;;17.33;11.88;;;;;;;18.98;51.52;100177.84;5108066;28;20030;-48
2022/04/29 05:18:09;;;;;;;18.85;11.85;;;;;;;19.23;50.65;100173.84;5107855;28;20016;-49
2022/04/29 05:20:34;;;;;;;15.02;10.10;;;;;;;19.51;50.49;100180.97;5109174;28;20042;-50
2022/04/29 05:23:00;;;;;;;15.80;9.48;;;;;;;19.66;49.15;100177.63;5108371;28;20444;-49
2022/04/29 05:25:25;;;;;;;15.25;9.60;;;;;;;19.46;49.46;100181.72;5108687;28;20102;-52
2022/04/29 05:27:51;;;;;;;14.05;9.35;;;;;;;19.40;49.34;100182.75;5109254;28;20359;-50
2022/04/29 05:30:16;;;;;;;18.60;12.25;;;;;;;19.38;49.64;100181.34;5108821;28;20487;-51
2022/04/29 05:32:42;;;;;;;25.63;18.27;;;;;;;19.59;49.06;100185.09;5108839;28;20020;-49
2022/04/29 05:35:09;;;;;;;12.80;9.40;;;;;;;19.03;49.62;100177.13;5109089;28;20111;-50
2022/04/29 05:37:36;;;;;;;13.25;10.38;;;;;;;18.90;50.05;100183.66;5109512;28;20139;-51
2022/04/29 05:42:47;;;;;;;13.80;9.50;;;;;;;18.69;50.97;100183.34;5109576;28;20072;-53
2022/04/29 05:45:12;;;;;;;15.30;9.40;;;;;;;19.17;52.03;100185.66;5108880;28;20015;-50
2022/04/29 05:47:38;;;;;;;13.45;9.35;;;;;;;18.74;50.52;100183.41;5109194;28;20053;-51
2022/04/29 05:50:04;;;;;;;16.35;9.85;;;;;;;18.97;50.03;100186.22;5109184;28;20041;-49
2022/04/29 05:52:30;;;;;;;14.07;10.00;;;;;;;18.88;49.59;100180.41;5109661;28;20058;-50
2022/04/29 05:54:55;;;;;;;14.90;9.55;;;;;;;18.86;49.44;100186.03;5109120;28;20386;-49
2022/04/29 05:57:21;;;;;;;16.75;11.88;;;;;;;19.02;48.44;100186.25;5109035;28;20468;-50
2022/04/29 05:59:46;;;;;;;15.05;10.30;;;;;;;19.36;48.66;100189.69;5109574;28;20029;-49
2022/04/29 06:02:12;;;;;;;10.73;8.32;;;;;;;19.64;51.52;100180.56;5109153;28;20020;-50
2022/04/29 06:04:37;;;;;;;12.20;9.25;;;;;;;20.21;46.89;100187.38;5109052;28;20595;-49
2022/04/29 06:07:03;;;;;;;11.57;8.98;;;;;;;20.35;46.97;100182.38;5109023;28;20088;-48
2022/04/29 06:09:28;;;;;;;13.00;9.63;;;;;;;20.13;46.35;100195.16;5109038;28;20020;-48
2022/04/29 06:11:54;;;;;;;11.30;9.27;;;;;;;20.31;47.35;100197.47;5109409;28;20480;-51
2022/04/29 06:14:19;;;;;;;11.73;9.05;;;;;;;20.66;46.63;100191.56;5112961;28;20023;-49
2022/04/29 06:16:46;;;;;;;13.25;9.93;;;;;;;20.53;45.53;100194.69;5112830;28;20019;-48
2022/04/29 06:19:12;;;;;;;12.77;9.13;;;;;;;20.09;46.04;100184.84;5112999;28;20406;-49
2022/04/29 06:21:40;;;;;;;13.63;10.00;;;;;;;20.09;46.72;100192.16;5112956;28;20024;-48
2022/04/29 06:24:06;;;;;;;16.73;10.73;;;;;;;19.78;47.07;100201.81;5112885;28;20027;-48
2022/04/29 06:26:32;;;;;;;17.45;10.10;;;;;;;18.97;49.01;100199.69;5112346;28;20202;-49
2022/04/29 06:28:57;;;;;;;15.35;10.55;;;;;;;18.97;49.14;100194.28;5112931;28;20026;-49
2022/04/29 06:31:23;;;;;;;12.88;10.05;;;;;;;19.12;48.67;100208.00;5112624;28;20360;-49
2022/04/29 06:33:48;;;;;;;14.35;9.75;;;;;;;19.50;48.20;100209.03;5112615;28;20019;-49
2022/04/29 06:36:14;;;;;;;14.68;9.73;;;;;;;19.36;49.46;100203.16;5112794;28;20126;-51
2022/04/29 06:38:40;;;;;;;12.68;9.85;;;;;;;19.33;48.26;100203.69;5112356;28;20449;-50
2022/04/29 06:41:06;;;;;;;16.00;10.27;;;;;;;19.46;47.76;100199.81;5106139;28;20039;-50
2022/04/29 06:43:32;;;;;;;12.82;10.00;;;;;;;19.49;48.28;100199.28;5098160;28;20472;-37
2022/04/29 06:45:58;;;;;;;13.65;9.85;;;;;;;19.90;46.88;100187.09;5092326;28;20052;-37
2022/04/29 06:48:23;;;;;;;15.52;9.95;;;;;;;19.49;47.67;100201.97;5092453;28;20080;-36
2022/04/29 06:50:49;;;;;;;15.13;11.20;;;;;;;19.22;48.39;100205.41;5092530;28;20016;-38
2022/04/29 06:53:14;;;;;;;13.38;9.88;;;;;;;19.44;47.30;100204.63;5092350;28;20028;-49
2022/04/29 06:55:40;;;;;;;14.50;10.10;;;;;;;19.37;47.89;100202.13;5095461;28;20032;-38
2022/04/29 06:58:06;;;;;;;14.90;10.00;;;;;;;19.80;47.27;100208.59;5113004;28;20027;-38
2022/04/29 07:00:32;;;;;;;18.05;10.10;;;;;;;20.01;47.22;100195.28;5113330;28;20020;-38
2022/04/29 07:02:58;;;;;;;12.25;9.88;;;;;;;20.59;47.91;100201.75;5113315;28;20116;-38
2022/04/29 07:05:23;;;;;;;14.00;9.85;;;;;;;20.80;45.51;100202.75;5112845;28;20055;-39
2022/04/29 07:07:51;;;;;;;14.23;9.80;;;;;;;20.64;46.14;100209.94;5112904;28;20119;-37
2022/04/29 07:10:17;;;;;;;11.85;9.32;;;;;;;20.48;45.86;100197.34;5112597;28;20023;-37
2022/04/29 07:12:44;;;;;;;13.85;10.05;;;;;;;20.24;46.49;100205.00;5112596;28;20023;-37
2022/04/29 07:15:11;;;;;;;15.35;9.75;;;;;;;19.65;47.01;100208.41;5112751;28;20115;-37
2022/04/29 07:17:37;;;;;;;16.67;10.60;;;;;;;19.79;47.00;100206.16;5112873;28;20180;-37
2022/04/29 07:20:04;;;;;;;14.60;10.07;;;;;;;19.88;46.92;100215.44;5112472;28;20111;-37
2022/04/29 07:22:29;;;;;;;18.08;9.73;;;;;;;20.20;46.81;100206.56;5112668;28;20043;-37
2022/04/29 07:24:55;;;;;;;12.82;9.48;;;;;;;20.38;45.70;100203.47;5112248;28;20059;-38
2022/04/29 07:27:21;;;;;;;13.00;9.80;;;;;;;20.14;45.33;100211.09;5112164;28;20027;-38
2022/04/29 07:29:47;;;;;;;12.90;9.13;;;;;;;20.37;45.78;100211.84;5112161;28;20015;-38
2022/04/29 07:32:12;;;;;;;14.93;9.43;;;;;;;20.01;46.21;100217.75;5111716;28;20075;-38
2022/04/29 07:42:50;;;;;;;15.40;9.63;;;;;;;22.08;42.09;100218.75;5110286;28;20084;-36
2022/04/29 07:45:16;;;;;;;16.52;9.45;;;;;;;22.52;41.98;100214.75;5111734;28;20023;-36
2022/04/29 07:47:41;;;;;;;13.52;9.77;;;;;;;22.48;41.75;100209.06;5111965;28;20103;-38
2022/04/29 07:50:07;;;;;;;13.40;9.18;;;;;;;22.02;42.83;100211.69;5111994;28;20574;-38
2022/04/29 07:52:34;;;;;;;13.77;9.65;;;;;;;21.77;42.77;100209.75;5110220;27;20408;-38
2022/04/29 07:55:00;;;;;;;14.32;10.55;;;;;;;22.03;42.38;100206.03;5108452;27;20098;-38
2022/04/29 07:57:25;;;;;;;10.80;9.18;;;;;;;22.40;41.75;100205.00;5111041;28;20007;-37
2022/04/29 07:59:51;;;;;;;12.73;9.35;;;;;;;22.68;41.16;100204.75;5111432;28;20063;-38
2022/04/29 08:02:16;;;;;;;11.85;8.70;;;;;;;22.59;41.78;100202.56;5110845;28;20027;-37
2022/04/29 08:04:41;;;;;;;13.05;8.73;;;;;;;23.31;41.43;100202.44;5111543;28;20662;-38
2022/04/29 08:07:07;;;;;;;12.95;8.73;;;;;;;23.50;39.78;100207.25;5111583;28;20106;-38
2022/04/29 08:09:32;;;;;;;12.57;8.60;;;;;;;23.77;39.64;100199.50;5111410;28;20023;-37
2022/04/29 08:11:58;;;;;;;10.23;8.30;;;;;;;23.73;39.97;100212.03;5111193;28;20039;-37
2022/04/29 08:14:23;;;;;;;13.00;8.80;;;;;;;23.99;39.13;100209.22;5110578;28;20086;-38
2022/04/29 08:16:49;;;;;;;12.15;8.45;;;;;;;23.89;39.66;100210.06;5106009;28;20512;-38
2022/04/29 08:19:15;;;;;;;11.63;8.43;;;;;;;23.79;39.20;100207.41;5091395;28;20019;-38
2022/04/29 08:21:41;;;;;;;12.05;8.45;;;;;;;23.55;39.45;100216.19;5111604;28;20022;-38
2022/04/29 08:24:06;;;;;;;14.70;9.35;;;;;;;24.52;37.99;100201.22;5111004;28;20391;-38
2022/04/29 08:26:32;;;;;;;11.50;8.57;;;;;;;24.75;37.19;100204.25;5111039;28;20024;-50
2022/04/29 08:28:58;;;;;;;12.73;8.50;;;;;;;25.45;35.97;100205.72;5109651;27;20038;-52
2022/04/29 08:31:24;;;;;;;15.63;9.07;;;;;;;24.93;36.93;100202.75;5109030;28;20591;-37
2022/04/29 08:33:50;;;;;;;13.43;8.25;;;;;;;25.08;37.14;100193.59;5106631;27;20537;-37
2022/04/29 08:36:15;;;;;;;8.80;7.55;;;;;;;24.81;37.21;100205.88;5110110;28;20019;-37
2022/04/29 08:38:42;;;;;;;8.70;7.65;;;;;;;24.25;37.75;100200.88;5110700;28;20528;-37
2022/04/29 08:41:08;;;;;;;9.98;7.97;;;;;;;24.70;37.51;100202.41;5110871;28;20046;-37
2022/04/29 08:43:35;;;;;;;10.35;8.65;;;;;;;24.36;37.60;100189.63;5110932;28;20019;-37
2022/04/29 08:46:01;;;;;;;9.70;8.05;;;;;;;25.05;37.29;100189.53;5110261;28;20059;-36
2022/04/29 08:48:30;;;;;;;10.32;7.85;;;;;;;25.34;37.03;100167.72;5108915;28;20076;-37
2022/04/29 08:50:59;;;;;;;;;;;;;;;25.27;36.77;100167.25;5111290;28;20063;-37
2022/04/29 08:53:24;;;;;;;8.48;7.32;;;;;;;26.16;35.55;100176.69;5110897;28;19972;-37
2022/04/29 08:58:36;;;;;;;8.38;7.57;;;;;;;26.18;35.16;100184.53;5111088;28;20133;-37
2022/04/29 09:01:10;;;;;;;9.43;7.57;;;;;;;25.42;35.59;100176.31;5110844;28;20031;-37
2022/04/29 09:03:37;;;;;;;8.90;7.80;;;;;;;25.33;36.12;100174.25;5109954;28;20020;-37
2022/04/29 09:06:04;;;;;;;9.57;7.70;;;;;;;26.40;34.68;100162.09;5109599;28;20082;-38
2022/04/29 09:08:40;;;;;;;10.05;7.85;;;;;;;27.28;33.41;100173.88;5109811;28;20020;-38
2022/04/29 09:11:06;;;;;;;9.10;7.82;;;;;;;27.47;33.18;100175.66;5108059;28;20088;-37
2022/04/29 09:13:37;;;;;;;10.38;7.57;;;;;;;26.97;33.29;100164.66;5109512;28;20154;-37
2022/04/29 09:16:13;;;;;;;9.85;8.07;;;;;;;27.09;33.55;100164.94;5107873;28;20492;-37
2022/04/29 09:18:46;;;;;;;8.68;7.50;;;;;;;27.88;32.21;100174.75;5107062;28;20027;-37
2022/04/29 09:21:17;;;;;;;9.63;7.30;;;;;;;27.35;32.83;100172.66;5109359;28;20044;-37
2022/04/29 09:23:45;;;;;;;11.98;7.68;;;;;;;27.80;34.49;100170.84;5107112;28;20019;-37
2022/04/29 09:26:29;;;;;;;8.73;7.60;;;;;;;28.21;31.31;100169.88;5108592;28;20420;-37
2022/04/29 09:29:09;;;;;;;9.25;7.80;;;;;;;28.26;31.64;100155.28;5108010;28;20092;-36
2022/04/29 09:31:55;;;;;;;10.48;7.75;;;;;;;27.60;32.32;100157.63;5108800;28;20352;-37
2022/04/29 09:34:42;;;;;;;10.75;7.50;;;;;;;26.98;33.09;100158.88;5106628;28;20460;-37
2022/04/29 09:37:16;;;;;;;8.82;7.65;;;;;;;26.95;33.21;100153.22;5106989;28;20449;-38
2022/04/29 09:39:54;;;;;;;9.25;8.00;;;;;;;27.34;32.41;100158.19;5106609;28;20056;-37
2022/04/29 09:42:20;;;;;;;12.00;8.02;;;;;;;27.48;33.01;100160.91;5106885;28;20031;-37
2022/04/29 09:44:46;;;;;;;11.18;7.30;;;;;;;28.02;30.96;100152.84;5109339;28;20012;-38
2022/04/29 09:47:19;;;;;;;7.65;6.68;;;;;;;27.50;31.49;100158.66;5111046;28;20383;-38
2022/04/29 09:49:58;;;;;;;9.27;7.10;;;;;;;26.89;32.20;100147.84;5113927;28;20065;-38
2022/04/29 09:52:25;;;;;;;8.52;7.50;;;;;;;27.05;32.25;100148.34;5113521;28;20110;-37
2022/04/29 09:54:51;;;;;;;8.30;5.90;;;;;;;27.10;31.55;100147.44;5114009;28;20051;-38
2022/04/29 09:57:24;;;;;;;9.07;6.20;;;;;;;27.34;31.14;100149.16;5113664;28;20463;-38
2022/04/29 09:59:53;;;;;;;9.57;7.28;;;;;;;26.58;32.52;100142.16;5113203;28;20447;-38
2022/04/29 10:02:23;;;;;;;11.63;8.57;;;;;;;27.03;32.36;100144.31;5113636;28;20034;-37
2022/04/29 10:04:51;;;;;;;17.75;13.65;;;;;;;27.67;31.75;100136.16;5113801;28;20103;-37
2022/04/29 10:07:21;;;;;;;10.20;7.82;;;;;;;27.99;31.01;100137.09;5113031;28;20024;-38
2022/04/29 10:09:51;;;;;;;9.52;7.32;;;;;;;27.59;31.73;100139.63;5110073;28;20023;-52
2022/04/29 10:12:21;;;;;;;9.45;7.45;;;;;;;27.40;31.58;100139.78;5113278;28;20561;-52
2022/04/29 10:14:49;;;;;;;8.55;7.55;;;;;;;27.35;31.75;100131.69;5110133;28;20027;-53
2022/04/29 10:22:51;;;;;;;;;;;;;;;27.15;32.45;100132.88;5113036;28;20540;-51
2022/04/29 10:25:24;;;;;;;9.95;7.65;;;;;;;26.87;32.79;100124.72;5112873;28;20033;-51
2022/04/29 10:27:50;;;;;;;9.05;7.00;;;;;;;26.61;32.74;100114.25;5110034;28;20566;-50
2022/04/29 10:30:28;;;;;;;8.00;7.20;;;;;;;27.09;32.13;100121.25;5112440;28;20446;-50
2022/04/29 10:33:05;;;;;;;10.52;7.57;;;;;;;27.66;31.39;100129.88;5107392;28;20020;-37
2022/04/29 10:35:43;;;;;;;7.70;6.90;;;;;;;27.77;31.39;100118.69;5112438;28;20094;-37
2022/04/29 10:38:11;;;;;;;9.00;7.05;;;;;;;27.73;31.02;100123.19;5111982;28;20036;-38
2022/04/29 10:40:37;;;;;;;10.80;6.57;;;;;;;28.23;30.42;100126.59;5112332;28;20647;-38
2022/04/29 10:43:07;;;;;;;8.77;7.18;;;;;;;26.76;32.17;100113.16;5111860;28;20049;-37
2022/04/29 10:45:33;;;;;;;9.82;7.40;;;;;;;27.22;32.18;100120.41;5112054;28;20019;-38
2022/04/29 10:48:31;;;;;;;12.93;7.50;;;;;;;27.29;31.88;100120.84;5112193;28;20107;-37
2022/04/29 10:50:58;;;;;;;9.77;7.32;;;;;;;27.11;31.45;100116.28;5112395;28;20032;-38
2022/04/29 10:53:24;;;;;;;9.02;7.78;;;;;;;27.42;31.91;100116.47;5112484;28;20107;-39
2022/04/29 10:55:50;;;;;;;9.45;7.20;;;;;;;27.85;31.01;100112.47;5112078;28;20479;-37
2022/04/29 10:58:23;;;;;;;10.18;7.40;;;;;;;28.15;30.94;100101.94;5111960;28;20164;-38
2022/04/29 11:00:56;;;;;;;9.45;7.15;;;;;;;27.62;31.48;100107.00;5112688;28;20027;-37
2022/04/29 11:03:36;;;;;;;13.93;7.28;;;;;;;28.02;30.13;100101.69;5112481;28;20024;-39
2022/04/29 11:06:10;;;;;;;9.52;7.25;;;;;;;27.66;30.91;100104.47;5111466;28;20540;-38
2022/04/29 11:08:35;;;;;;;13.23;7.57;;;;;;;27.46;31.94;100103.81;5112410;28;20034;-38
2022/04/29 11:11:03;;;;;;;8.98;7.57;;;;;;;27.58;31.32;100097.81;5111911;28;20483;-38
2022/04/29 11:13:30;;;;;;;9.10;7.30;;;;;;;27.21;32.05;100101.63;5112813;28;20429;-38
2022/04/29 11:16:07;;;;;;;10.80;7.38;;;;;;;28.02;30.82;100096.22;5112030;28;20104;-38
2022/04/29 11:18:33;;;;;;;10.68;7.47;;;;;;;28.38;30.48;100084.38;5112305;28;20532;-38
2022/04/29 11:20:59;;;;;;;8.93;6.70;;;;;;;27.59;31.69;100084.97;5108463;28;20028;-38
2022/04/29 11:26:50;;;;;;;9.57;6.43;;;;;;;27.06;30.96;100081.72;5091782;28;20039;-38
2022/04/29 11:29:19;;;;;;;8.13;6.32;;;;;;;26.42;32.32;100083.50;5110528;28;20127;-37
2022/04/29 11:31:44;;;;;;;9.43;7.55;;;;;;;27.24;31.95;100085.41;5111986;28;20156;-36
2022/04/29 11:34:13;;;;;;;10.75;7.63;;;;;;;27.66;31.57;100082.59;5111800;27;20110;-36
2022/04/29 11:36:39;;;;;;;9.45;7.28;;;;;;;28.10;29.56;100063.78;5111976;28;20483;-38
2022/04/29 11:39:16;;;;;;;9.70;7.20;;;;;;;28.02;29.99;100068.88;5104140;27;20081;-37
2022/04/29 11:41:53;;;;;;;9.55;7.45;;;;;;;28.58;30.66;100066.63;5093369;28;20089;-38